Time;durP1;ratioP1;P1;durP2;ratioP2;P2;SDS_P1;SDS_P2;PMS_P1;PMS_P2;Temp;Humidity;BMP_temperature;BMP_pressure;BME280_temperature;BME280_humidity;BME280_pressure;Samples;Min_cycle;Max_cycle;Signal;HPM_P1;HPM_P2
2024/01/30 00:02:02;;;;;;;12.38;3.80;;;27.90;99.90;;;;;;4945666;28;20032;-70
2024/01/30 00:04:29;;;;;;;8.02;3.30;;;28.10;99.90;;;;;;4944796;28;20090;-70
2024/01/30 00:06:57;;;;;;;10.75;3.30;;;28.10;99.90;;;;;;4942117;29;20136;-69
2024/01/30 00:09:24;;;;;;;11.13;3.95;;;28.00;99.90;;;;;;4936095;29;20434;-69
2024/01/30 00:11:52;;;;;;;11.25;3.20;;;27.80;99.90;;;;;;4937463;29;20027;-70
2024/01/30 00:14:19;;;;;;;11.65;3.70;;;27.70;99.90;;;;;;4937068;29;20032;-70
2024/01/30 00:16:46;;;;;;;9.65;3.17;;;27.50;99.90;;;;;;4947022;29;20433;-69
2024/01/30 00:19:14;;;;;;;9.05;2.83;;;27.50;99.90;;;;;;4943184;29;20056;-69
2024/01/30 00:21:41;;;;;;;9.57;3.13;;;27.30;99.90;;;;;;4942483;29;20028;-69
2024/01/30 00:24:08;;;;;;;14.18;3.75;;;27.20;99.90;;;;;;4941148;28;20032;-69
2024/01/30 00:26:36;;;;;;;11.23;3.38;;;27.30;99.90;;;;;;4953628;28;20124;-70
2024/01/30 00:29:03;;;;;;;9.50;3.50;;;27.20;99.90;;;;;;4941631;28;20020;-69
2024/01/30 00:31:31;;;;;;;11.52;3.63;;;27.00;99.90;;;;;;4936596;29;20080;-69
2024/01/30 00:33:58;;;;;;;14.52;3.58;;;27.10;99.90;;;;;;4944278;28;20115;-69
2024/01/30 00:36:25;;;;;;;10.30;3.42;;;27.10;99.90;;;;;;4935996;29;20102;-70
2024/01/30 00:38:53;;;;;;;14.07;3.95;;;27.10;99.90;;;;;;4938979;29;20043;-68
2024/01/30 00:41:20;;;;;;;10.00;3.20;;;27.10;99.90;;;;;;4939385;29;20038;-69
2024/01/30 00:43:47;;;;;;;12.70;3.10;;;27.00;99.90;;;;;;4937710;28;20107;-69
2024/01/30 00:46:15;;;;;;;11.48;3.28;;;27.10;99.90;;;;;;4946318;28;20060;-69
2024/01/30 00:48:42;;;;;;;16.08;3.90;;;27.10;99.90;;;;;;4938471;29;20024;-69
2024/01/30 00:51:09;;;;;;;11.00;3.45;;;27.00;99.90;;;;;;4942343;28;20166;-69
2024/01/30 00:53:37;;;;;;;17.70;4.28;;;27.00;99.90;;;;;;4935553;29;20513;-68
2024/01/30 00:56:04;;;;;;;13.60;3.78;;;27.10;99.90;;;;;;4937131;29;20023;-69
2024/01/30 00:58:32;;;;;;;13.73;4.18;;;27.20;99.90;;;;;;4944596;28;20035;-69
2024/01/30 01:00:59;;;;;;;16.25;3.67;;;27.20;99.90;;;;;;4940271;29;20037;-68
2024/01/30 01:03:26;;;;;;;14.57;3.63;;;27.30;99.90;;;;;;4936810;29;20082;-69
2024/01/30 01:05:54;;;;;;;11.50;3.65;;;27.40;99.90;;;;;;4948615;28;20393;-69
2024/01/30 01:08:21;;;;;;;14.57;4.43;;;27.40;99.90;;;;;;4939909;28;20041;-69
2024/01/30 01:10:48;;;;;;;9.80;3.53;;;27.40;99.90;;;;;;4958133;28;20114;-69
2024/01/30 01:13:16;;;;;;;14.52;3.63;;;27.60;99.90;;;;;;4935090;29;20026;-69
2024/01/30 01:15:44;;;;;;;12.60;3.25;;;27.60;99.90;;;;;;4936331;29;20035;-69
2024/01/30 01:18:11;;;;;;;12.77;3.40;;;27.60;99.90;;;;;;4940698;29;20031;-69
2024/01/30 01:20:39;;;;;;;7.97;3.35;;;27.60;99.90;;;;;;4935881;29;20027;-69
2024/01/30 01:23:06;;;;;;;7.30;3.67;;;27.60;99.90;;;;;;4937731;29;20461;-68
2024/01/30 01:25:33;;;;;;;8.90;2.95;;;27.50;99.90;;;;;;4935903;29;20027;-69
2024/01/30 01:28:01;;;;;;;11.00;2.97;;;27.50;99.90;;;;;;4939024;29;20105;-69
2024/01/30 01:30:29;;;;;;;11.32;3.30;;;27.50;99.90;;;;;;4943957;29;20143;-69
2024/01/30 01:32:57;;;;;;;9.43;2.38;;;27.60;99.90;;;;;;4945248;28;20019;-69
2024/01/30 01:35:25;;;;;;;10.50;2.63;;;27.40;99.90;;;;;;4943186;28;20385;-69
2024/01/30 01:37:56;;;;;;;11.68;3.40;;;27.40;99.90;;;;;;4941202;29;20094;-70
2024/01/30 01:40:27;;;;;;;7.18;1.98;;;27.40;99.90;;;;;;4935101;29;20027;-70
2024/01/30 01:42:56;;;;;;;10.20;2.50;;;27.40;99.90;;;;;;4944823;28;20035;-69
2024/01/30 01:45:23;;;;;;;7.18;2.47;;;27.40;99.90;;;;;;4935925;28;20035;-69
2024/01/30 01:47:54;;;;;;;8.05;2.50;;;27.40;99.90;;;;;;4941935;29;20418;-69
2024/01/30 01:50:22;;;;;;;11.13;2.60;;;27.50;99.90;;;;;;4936426;29;20030;-69
2024/01/30 01:52:50;;;;;;;7.60;2.17;;;27.50;99.90;;;;;;4950978;28;20055;-68
2024/01/30 01:55:21;;;;;;;11.05;2.97;;;27.50;99.90;;;;;;4934710;28;20039;-70
2024/01/30 01:57:49;;;;;;;7.43;2.80;;;27.70;99.90;;;;;;4939643;29;20121;-69
2024/01/30 02:00:17;;;;;;;7.25;2.50;;;27.80;99.90;;;;;;4939539;29;20031;-69
2024/01/30 02:02:45;;;;;;;13.13;2.72;;;27.70;99.90;;;;;;4939701;28;20062;-70
2024/01/30 02:05:13;;;;;;;11.55;2.35;;;27.70;99.90;;;;;;4945536;28;20087;-69
2024/01/30 02:07:41;;;;;;;8.82;2.53;;;27.70;99.90;;;;;;4940271;29;20050;-69
2024/01/30 02:10:12;;;;;;;5.47;2.25;;;27.70;99.90;;;;;;4937461;29;20031;-69
2024/01/30 02:12:40;;;;;;;9.23;2.53;;;27.70;99.90;;;;;;4941831;29;20043;-69
2024/01/30 02:15:08;;;;;;;6.95;1.95;;;27.60;99.90;;;;;;4940236;29;20050;-69
2024/01/30 02:17:35;;;;;;;7.38;2.28;;;27.60;99.90;;;;;;4938374;29;20411;-69
2024/01/30 02:20:03;;;;;;;9.05;2.33;;;27.80;99.90;;;;;;4934668;29;20029;-69
2024/01/30 02:22:32;;;;;;;10.20;2.42;;;27.60;99.90;;;;;;4942051;29;20019;-69
2024/01/30 02:25:00;;;;;;;7.03;2.45;;;27.60;99.90;;;;;;4969115;28;20039;-70
2024/01/30 02:27:27;;;;;;;9.90;2.50;;;27.60;99.90;;;;;;4945433;29;20110;-70
2024/01/30 02:29:54;;;;;;;11.85;2.80;;;27.70;99.90;;;;;;4937558;28;20121;-70
2024/01/30 02:32:22;;;;;;;8.98;2.92;;;27.80;99.90;;;;;;4934732;29;20035;-70
2024/01/30 02:34:49;;;;;;;9.68;2.85;;;27.90;99.90;;;;;;4940273;29;20523;-69
2024/01/30 02:37:17;;;;;;;7.53;2.47;;;28.10;99.90;;;;;;4933884;29;20062;-69
2024/01/30 02:39:45;;;;;;;8.82;2.78;;;28.40;99.90;;;;;;4934556;29;20035;-69
2024/01/30 02:42:12;;;;;;;9.80;2.78;;;28.60;99.90;;;;;;4944954;28;20074;-70
2024/01/30 02:44:39;;;;;;;7.45;2.15;;;28.70;99.90;;;;;;4938626;29;20037;-70
2024/01/30 02:47:07;;;;;;;6.53;2.00;;;28.90;99.90;;;;;;4940207;28;20083;-70
2024/01/30 02:49:34;;;;;;;9.93;2.63;;;29.00;99.50;;;;;;4940749;29;20540;-70
2024/01/30 02:52:01;;;;;;;8.15;2.20;;;29.00;99.50;;;;;;4936265;29;20043;-68
2024/01/30 02:54:30;;;;;;;7.88;2.47;;;29.00;99.40;;;;;;4932701;29;20052;-69
2024/01/30 02:56:58;;;;;;;13.35;3.10;;;29.10;99.60;;;;;;4934102;29;20032;-69
2024/01/30 02:59:25;;;;;;;9.60;2.53;;;29.30;99.60;;;;;;4937687;29;20446;-69
2024/01/30 03:01:52;;;;;;;10.60;2.22;;;29.60;99.00;;;;;;4934087;29;20054;-69
2024/01/30 03:04:20;;;;;;;9.80;2.75;;;29.80;98.50;;;;;;4933553;29;20030;-68
2024/01/30 03:06:47;;;;;;;4.90;2.28;;;30.00;98.50;;;;;;4939323;29;20032;-69
2024/01/30 03:09:17;;;;;;;7.75;2.05;;;30.00;98.10;;;;;;4936680;28;20113;-69
2024/01/30 03:11:45;;;;;;;5.90;2.10;;;29.90;98.00;;;;;;4947594;28;20425;-69
2024/01/30 03:14:12;;;;;;;9.35;2.22;;;29.90;98.40;;;;;;4944908;28;20550;-68
2024/01/30 03:16:39;;;;;;;5.93;1.85;;;29.90;98.00;;;;;;4938838;28;20462;-69
2024/01/30 03:19:08;;;;;;;5.57;2.20;;;29.80;98.00;;;;;;4936601;29;20462;-69
2024/01/30 03:21:36;;;;;;;6.57;1.92;;;29.80;98.30;;;;;;4934657;28;20024;-69
2024/01/30 03:24:03;;;;;;;6.40;2.15;;;29.70;98.20;;;;;;4938847;28;20075;-69
2024/01/30 03:26:31;;;;;;;9.80;2.35;;;29.50;98.00;;;;;;4941117;28;20031;-69
2024/01/30 03:28:58;;;;;;;7.50;2.50;;;29.40;98.00;;;;;;4938191;29;20024;-70
2024/01/30 03:31:26;;;;;;;8.73;2.25;;;29.30;98.30;;;;;;4936933;29;20027;-69
2024/01/30 03:33:53;;;;;;;6.75;2.25;;;29.30;98.60;;;;;;4943221;29;20400;-68
2024/01/30 03:36:21;;;;;;;9.45;2.42;;;29.20;98.80;;;;;;4934116;29;20028;-69
2024/01/30 03:38:48;;;;;;;12.50;2.88;;;29.10;99.00;;;;;;4938961;29;20024;-69
2024/01/30 03:41:16;;;;;;;9.45;2.38;;;29.20;99.00;;;;;;4939309;28;20053;-69
2024/01/30 03:43:43;;;;;;;7.55;2.45;;;29.20;98.80;;;;;;4933664;28;20469;-71
2024/01/30 03:46:13;;;;;;;6.47;2.03;;;29.30;99.00;;;;;;4939612;28;20063;-70
2024/01/30 03:48:40;;;;;;;11.13;2.78;;;29.30;98.80;;;;;;4935437;29;20027;-70
2024/01/30 03:51:08;;;;;;;9.40;2.17;;;29.20;98.70;;;;;;4936663;29;20038;-70
2024/01/30 03:53:35;;;;;;;7.68;2.22;;;29.10;98.90;;;;;;4938714;29;20115;-70
2024/01/30 03:56:03;;;;;;;13.18;2.55;;;29.20;98.40;;;;;;4939082;29;20568;-70
2024/01/30 03:58:30;;;;;;;10.65;2.67;;;29.30;98.80;;;;;;4938432;29;20027;-70
2024/01/30 04:00:57;;;;;;;7.78;2.50;;;29.30;98.20;;;;;;4940489;28;20034;-70
2024/01/30 04:03:25;;;;;;;11.13;3.10;;;29.60;98.10;;;;;;4940442;29;20427;-70
2024/01/30 04:05:55;;;;;;;11.00;2.65;;;29.70;98.30;;;;;;4937233;29;20098;-70
2024/01/30 04:08:23;;;;;;;8.02;2.08;;;29.70;98.30;;;;;;4950881;28;20556;-70
2024/01/30 04:10:50;;;;;;;10.90;2.60;;;29.60;98.30;;;;;;4943405;29;20378;-70
2024/01/30 04:13:17;;;;;;;8.63;2.85;;;29.70;98.20;;;;;;4935823;29;20055;-71
2024/01/30 04:15:45;;;;;;;12.98;3.03;;;29.60;98.00;;;;;;4940263;29;20035;-69
2024/01/30 04:18:12;;;;;;;9.10;2.55;;;29.50;98.20;;;;;;4949939;28;20358;-70
2024/01/30 04:20:39;;;;;;;12.10;2.97;;;29.50;98.30;;;;;;4936523;28;20478;-70
2024/01/30 04:23:07;;;;;;;7.50;2.53;;;29.60;98.40;;;;;;4940545;29;20020;-70
2024/01/30 04:25:34;;;;;;;7.65;2.28;;;29.80;98.20;;;;;;4940133;29;20023;-70
2024/01/30 04:28:02;;;;;;;8.65;2.45;;;29.80;98.10;;;;;;4936116;29;20028;-69
2024/01/30 04:30:29;;;;;;;8.68;2.88;;;30.00;97.90;;;;;;4947951;28;20055;-71
2024/01/30 04:32:57;;;;;;;11.25;2.50;;;29.90;97.40;;;;;;4950665;28;20035;-71
2024/01/30 04:35:24;;;;;;;7.93;2.30;;;30.00;97.50;;;;;;4940488;28;20079;-70
2024/01/30 04:37:53;;;;;;;11.18;2.67;;;29.90;97.90;;;;;;4938622;28;20050;-71
2024/01/30 04:40:22;;;;;;;13.38;3.05;;;29.90;97.30;;;;;;4934595;28;20032;-70
2024/01/30 04:42:49;;;;;;;15.13;2.42;;;29.60;97.30;;;;;;4950653;28;20045;-69
2024/01/30 04:45:16;;;;;;;8.60;1.85;;;29.50;97.40;;;;;;4938718;28;20032;-69
2024/01/30 04:47:44;;;;;;;5.60;1.63;;;29.30;97.90;;;;;;4943222;28;21158;-69
2024/01/30 04:50:11;;;;;;;10.82;2.55;;;29.10;98.10;;;;;;4942714;28;20024;-69
2024/01/30 04:52:38;;;;;;;6.22;2.08;;;29.10;98.20;;;;;;4951362;28;20079;-69
2024/01/30 04:55:06;;;;;;;11.23;1.90;;;29.10;98.50;;;;;;4936857;28;20036;-69
2024/01/30 04:57:34;;;;;;;8.50;1.50;;;29.20;98.50;;;;;;4942910;28;20087;-70
2024/01/30 05:00:01;;;;;;;6.18;1.75;;;29.00;98.40;;;;;;4940729;28;20031;-71
2024/01/30 05:02:28;;;;;;;8.63;1.85;;;28.80;98.60;;;;;;4942081;28;20039;-71
2024/01/30 05:04:56;;;;;;;9.23;2.72;;;28.80;98.60;;;;;;4940218;28;20039;-70
2024/01/30 05:07:24;;;;;;;8.15;2.08;;;28.80;98.90;;;;;;4962651;28;20458;-70
2024/01/30 05:09:52;;;;;;;8.43;2.00;;;29.00;98.60;;;;;;4948042;28;20107;-70
2024/01/30 05:12:20;;;;;;;8.63;2.20;;;29.10;98.40;;;;;;4944777;29;20023;-69
2024/01/30 05:14:48;;;;;;;10.68;2.28;;;29.10;98.50;;;;;;4936074;28;20055;-69
2024/01/30 05:17:16;;;;;;;5.45;1.90;;;29.30;98.50;;;;;;4940268;29;20461;-69
2024/01/30 05:19:45;;;;;;;8.75;2.72;;;29.20;98.30;;;;;;4940047;29;20062;-70
2024/01/30 05:22:15;;;;;;;14.13;2.45;;;29.20;98.20;;;;;;4938170;28;20127;-70
2024/01/30 05:24:45;;;;;;;10.65;2.33;;;29.10;98.30;;;;;;4943592;29;20045;-70
2024/01/30 05:27:16;;;;;;;7.47;2.20;;;29.00;98.30;;;;;;4941675;29;20022;-70
2024/01/30 05:29:43;;;;;;;12.63;2.72;;;29.00;98.40;;;;;;4935325;29;20036;-69
2024/01/30 05:32:10;;;;;;;11.60;2.55;;;29.00;98.40;;;;;;4937747;29;20027;-69
2024/01/30 05:34:38;;;;;;;10.50;2.80;;;29.00;98.40;;;;;;4941758;28;20038;-70
2024/01/30 05:37:05;;;;;;;15.05;2.95;;;28.90;98.40;;;;;;4935027;29;20110;-70
2024/01/30 05:39:33;;;;;;;13.32;3.35;;;29.00;98.40;;;;;;4937267;29;20407;-70
2024/01/30 05:42:00;;;;;;;12.55;2.95;;;28.90;98.70;;;;;;4941820;29;20122;-70
2024/01/30 05:44:28;;;;;;;12.65;2.65;;;28.90;98.50;;;;;;4935067;29;20028;-70
2024/01/30 05:46:55;;;;;;;14.68;2.92;;;28.60;98.90;;;;;;4936376;28;20469;-70
2024/01/30 05:49:22;;;;;;;12.45;2.67;;;28.50;99.00;;;;;;4936994;29;20035;-70
2024/01/30 05:51:50;;;;;;;13.70;3.38;;;28.40;99.10;;;;;;4939477;29;20384;-69
2024/01/30 05:54:17;;;;;;;11.80;2.70;;;28.50;99.20;;;;;;4949452;29;20051;-71
2024/01/30 05:56:45;;;;;;;13.23;3.20;;;28.60;99.20;;;;;;4946727;28;20098;-68
2024/01/30 05:59:12;;;;;;;16.20;3.20;;;28.60;99.20;;;;;;4941992;28;20067;-69
2024/01/30 06:01:45;;;;;;;17.83;2.95;;;28.60;99.30;;;;;;4936377;29;20035;-70
2024/01/30 06:04:12;;;;;;;13.57;3.08;;;28.60;99.30;;;;;;4934318;29;20477;-71
2024/01/30 06:06:40;;;;;;;14.23;2.97;;;28.50;99.30;;;;;;4938851;28;20074;-71
2024/01/30 06:09:10;;;;;;;11.57;3.17;;;28.40;99.40;;;;;;4946519;28;20063;-68
2024/01/30 06:11:37;;;;;;;14.38;3.50;;;28.40;99.40;;;;;;4948297;28;20110;-69
2024/01/30 06:14:04;;;;;;;11.15;2.80;;;28.40;99.30;;;;;;4936051;28;20055;-68
2024/01/30 06:16:32;;;;;;;9.40;2.50;;;28.40;99.40;;;;;;4935610;28;20126;-68
2024/01/30 06:19:00;;;;;;;11.13;3.08;;;28.30;99.60;;;;;;4937094;28;20059;-69
2024/01/30 06:21:27;;;;;;;15.02;2.92;;;28.40;99.40;;;;;;4936175;28;20438;-69
2024/01/30 06:23:54;;;;;;;13.75;3.05;;;28.40;99.30;;;;;;4952340;28;20500;-70
2024/01/30 06:26:22;;;;;;;12.65;2.72;;;28.40;99.40;;;;;;4934414;29;20477;-68
2024/01/30 06:28:49;;;;;;;12.77;2.92;;;28.30;99.50;;;;;;4935687;28;20118;-68
2024/01/30 06:31:16;;;;;;;15.45;3.50;;;28.30;99.80;;;;;;4942452;29;20497;-69
2024/01/30 06:33:44;;;;;;;13.65;2.72;;;28.30;99.90;;;;;;4938324;28;20421;-70
2024/01/30 06:36:11;;;;;;;15.23;2.70;;;28.20;99.80;;;;;;4934012;29;20135;-68
2024/01/30 06:38:38;;;;;;;10.23;2.38;;;28.20;99.90;;;;;;4939394;29;20414;-68
2024/01/30 06:41:05;;;;;;;13.52;2.88;;;28.20;99.90;;;;;;4943268;28;20078;-69
2024/01/30 06:43:33;;;;;;;16.65;2.70;;;28.20;99.80;;;;;;4941671;29;20031;-68
2024/01/30 06:46:00;;;;;;;13.13;2.33;;;28.20;99.90;;;;;;4935059;29;20369;-68
2024/01/30 06:48:27;;;;;;;9.95;2.45;;;28.10;99.90;;;;;;4936012;29;20042;-69
2024/01/30 06:50:56;;;;;;;10.80;2.45;;;28.10;99.90;;;;;;4933124;29;20032;-69
2024/01/30 06:53:25;;;;;;;12.15;2.40;;;28.00;99.90;;;;;;4936645;29;20051;-69
2024/01/30 06:55:53;;;;;;;8.23;2.25;;;28.00;99.90;;;;;;4934327;29;20051;-69
2024/01/30 06:58:20;;;;;;;6.25;2.20;;;27.90;99.90;;;;;;4935998;29;20031;-69
2024/01/30 07:00:47;;;;;;;10.30;2.80;;;27.90;99.90;;;;;;4938453;29;20039;-70
2024/01/30 07:03:15;;;;;;;12.43;2.50;;;27.70;99.90;;;;;;4944614;28;20813;-69
2024/01/30 07:05:42;;;;;;;9.70;2.35;;;27.70;99.90;;;;;;4938524;28;20035;-70
2024/01/30 07:08:10;;;;;;;11.93;2.85;;;27.80;99.90;;;;;;4936178;28;20496;-69
2024/01/30 07:10:37;;;;;;;13.25;2.83;;;27.70;99.90;;;;;;4938284;28;20060;-68
2024/01/30 07:13:05;;;;;;;12.93;2.78;;;27.70;99.90;;;;;;4937451;29;20031;-69
2024/01/30 07:15:33;;;;;;;13.95;3.40;;;27.70;99.90;;;;;;4932266;29;20058;-69
2024/01/30 07:18:01;;;;;;;10.45;2.40;;;27.70;99.90;;;;;;4944009;28;20468;-69
2024/01/30 07:20:30;;;;;;;11.55;2.97;;;27.60;99.90;;;;;;4945448;29;20035;-68
2024/01/30 07:23:00;;;;;;;13.98;3.35;;;27.70;99.90;;;;;;4941540;28;20028;-69
2024/01/30 07:25:29;;;;;;;15.85;3.17;;;27.70;99.90;;;;;;4933145;29;20024;-69
2024/01/30 07:27:57;;;;;;;10.73;3.30;;;27.70;99.90;;;;;;4945839;28;20039;-69
2024/01/30 07:30:24;;;;;;;13.10;2.85;;;27.60;99.90;;;;;;4938532;28;20031;-69
2024/01/30 07:32:52;;;;;;;11.85;2.80;;;27.50;99.90;;;;;;4940623;28;20598;-69
2024/01/30 07:35:19;;;;;;;14.73;3.00;;;27.50;99.90;;;;;;4944732;29;20039;-68
2024/01/30 07:37:47;;;;;;;20.67;4.43;;;27.50;99.90;;;;;;4937712;28;20038;-70
2024/01/30 07:40:14;;;;;;;12.68;3.53;;;27.50;99.90;;;;;;4944705;28;20042;-68
2024/01/30 07:42:42;;;;;;;16.90;3.30;;;27.40;99.90;;;;;;4939392;29;20031;-70
2024/01/30 07:45:09;;;;;;;20.30;4.60;;;27.20;99.90;;;;;;4940403;29;20031;-71
2024/01/30 07:47:37;;;;;;;19.23;2.90;;;27.20;99.90;;;;;;4943002;29;20023;-70
2024/01/30 07:50:05;;;;;;;14.63;3.13;;;27.10;99.90;;;;;;4939973;29;20503;-69
2024/01/30 07:52:32;;;;;;;16.98;3.03;;;26.90;99.90;;;;;;4939845;29;20085;-69
2024/01/30 07:55:00;;;;;;;12.20;3.15;;;26.90;99.90;;;;;;4935686;28;20044;-69
2024/01/30 07:57:27;;;;;;;13.23;3.53;;;27.00;99.90;;;;;;4947153;29;20110;-72
2024/01/30 07:59:55;;;;;;;15.38;3.80;;;26.90;99.90;;;;;;4947741;28;20371;-69
2024/01/30 08:02:25;;;;;;;10.52;2.80;;;26.90;99.90;;;;;;4936199;29;20086;-70
2024/01/30 08:04:53;;;;;;;18.17;3.97;;;26.90;99.90;;;;;;4943329;29;20023;-71
2024/01/30 08:07:21;;;;;;;17.33;3.30;;;26.90;99.90;;;;;;4942302;29;20126;-70
2024/01/30 08:09:49;;;;;;;18.30;3.70;;;26.90;99.90;;;;;;4936893;29;20607;-71
2024/01/30 08:12:17;;;;;;;22.63;4.20;;;26.80;99.90;;;;;;4939854;29;20040;-70
2024/01/30 08:14:44;;;;;;;15.82;3.42;;;26.80;99.90;;;;;;4945359;29;20495;-69
2024/01/30 08:17:15;;;;;;;18.50;3.70;;;26.60;99.90;;;;;;4937975;29;20086;-69
2024/01/30 08:19:42;;;;;;;19.38;3.60;;;26.60;99.90;;;;;;4947256;28;20040;-70
2024/01/30 08:22:09;;;;;;;16.60;3.40;;;26.60;99.90;;;;;;4946164;28;20054;-68
2024/01/30 08:24:37;;;;;;;13.98;3.20;;;26.70;99.90;;;;;;4941952;28;20401;-70
2024/01/30 08:27:05;;;;;;;12.85;3.17;;;26.70;99.90;;;;;;4944923;29;20023;-70
2024/01/30 08:29:32;;;;;;;14.63;3.33;;;26.80;99.90;;;;;;4953720;28;20043;-70
2024/01/30 08:32:00;;;;;;;19.73;3.55;;;26.80;99.90;;;;;;4941574;29;20071;-70
2024/01/30 08:34:27;;;;;;;18.60;4.18;;;26.80;99.90;;;;;;4947041;29;20499;-70
2024/01/30 08:36:55;;;;;;;19.05;4.25;;;26.80;99.90;;;;;;4950673;28;20031;-69
2024/01/30 08:39:22;;;;;;;13.95;3.28;;;26.70;99.90;;;;;;4938794;28;20032;-70
2024/01/30 08:41:52;;;;;;;19.70;4.22;;;26.70;99.90;;;;;;4943744;28;20042;-69
2024/01/30 08:44:20;;;;;;;16.38;3.83;;;26.60;99.90;;;;;;4941100;28;20110;-70
2024/01/30 08:46:50;;;;;;;16.38;4.32;;;26.50;99.90;;;;;;4937068;28;20035;-69
2024/01/30 08:49:18;;;;;;;12.27;3.63;;;26.40;99.90;;;;;;4946495;29;20481;-70
2024/01/30 08:51:45;;;;;;;22.55;4.13;;;26.40;99.90;;;;;;4955537;28;20078;-70
2024/01/30 08:54:13;;;;;;;11.50;4.25;;;26.40;99.90;;;;;;4946578;28;20043;-70
2024/01/30 08:56:40;;;;;;;18.75;3.60;;;26.40;99.90;;;;;;4943708;28;20031;-70
2024/01/30 08:59:07;;;;;;;18.23;4.07;;;26.40;99.90;;;;;;4942356;28;20032;-70
2024/01/30 09:01:35;;;;;;;19.70;3.78;;;26.30;99.90;;;;;;4942783;29;20082;-71
2024/01/30 09:04:02;;;;;;;17.67;4.10;;;26.20;99.90;;;;;;4949998;28;20036;-69
2024/01/30 09:06:30;;;;;;;18.38;4.53;;;26.10;99.90;;;;;;4941629;28;20039;-69
2024/01/30 09:08:57;;;;;;;13.68;3.33;;;26.10;99.90;;;;;;4940825;29;20461;-70
2024/01/30 09:11:25;;;;;;;17.10;3.80;;;26.20;99.90;;;;;;4947796;29;20027;-70
2024/01/30 09:13:52;;;;;;;16.58;4.10;;;26.20;99.90;;;;;;4936900;28;20028;-69
2024/01/30 09:16:20;;;;;;;14.85;4.05;;;26.10;99.90;;;;;;4936354;29;20515;-68
2024/01/30 09:18:47;;;;;;;25.88;4.57;;;26.10;99.90;;;;;;4948021;28;20024;-69
2024/01/30 09:21:14;;;;;;;21.10;4.30;;;26.10;99.90;;;;;;4937106;29;20059;-69
2024/01/30 09:23:42;;;;;;;15.75;4.30;;;26.10;99.90;;;;;;4936388;28;20519;-69
2024/01/30 09:26:09;;;;;;;14.90;3.95;;;26.10;99.90;;;;;;4936102;29;20365;-69
2024/01/30 09:28:36;;;;;;;19.00;3.40;;;26.00;99.90;;;;;;4945841;28;20090;-70
2024/01/30 09:31:04;;;;;;;18.63;3.97;;;25.90;99.90;;;;;;4947578;28;20086;-70
2024/01/30 09:33:31;;;;;;;15.90;3.95;;;25.70;99.90;;;;;;4941724;29;20019;-69
2024/01/30 09:35:58;;;;;;;14.73;3.63;;;25.80;99.90;;;;;;4935008;29;20548;-70
2024/01/30 09:38:26;;;;;;;15.00;3.60;;;26.00;99.90;;;;;;4936563;29;20027;-70
2024/01/30 09:40:58;;;;;;;23.20;4.68;;;25.80;99.90;;;;;;4939544;28;20129;-70
2024/01/30 09:43:28;;;;;;;23.23;4.10;;;26.00;99.90;;;;;;4943292;29;20043;-69
2024/01/30 09:45:56;;;;;;;19.25;3.63;;;26.10;99.90;;;;;;4955010;28;20028;-69
2024/01/30 09:48:24;;;;;;;17.52;3.55;;;26.00;99.90;;;;;;4938597;29;20382;-69
2024/01/30 09:50:53;;;;;;;15.63;3.88;;;25.90;99.90;;;;;;4937059;29;20163;-69
2024/01/30 09:53:22;;;;;;;23.27;4.40;;;25.70;99.90;;;;;;4959208;28;20142;-69
2024/01/30 09:55:51;;;;;;;22.42;4.28;;;25.70;99.90;;;;;;4941621;28;21181;-69
2024/01/30 09:58:19;;;;;;;19.08;3.80;;;25.70;99.90;;;;;;4936859;28;20032;-70
2024/01/30 10:00:47;;;;;;;13.73;3.53;;;25.70;99.90;;;;;;4939353;28;20058;-69
2024/01/30 10:03:14;;;;;;;15.10;4.03;;;25.80;99.90;;;;;;4942092;28;20058;-70
2024/01/30 10:05:45;;;;;;;14.93;3.42;;;25.60;99.90;;;;;;4935999;28;20031;-70
2024/01/30 10:08:13;;;;;;;19.73;3.67;;;25.60;99.90;;;;;;4941564;28;20035;-70
2024/01/30 10:10:40;;;;;;;19.05;4.43;;;25.70;99.90;;;;;;4939133;28;20047;-70
2024/01/30 10:13:09;;;;;;;13.85;3.78;;;25.80;99.90;;;;;;4938152;29;20016;-70
2024/01/30 10:15:40;;;;;;;23.33;4.40;;;25.70;99.90;;;;;;4934930;28;20047;-70
2024/01/30 10:18:10;;;;;;;17.35;4.40;;;25.60;99.90;;;;;;4943087;28;20026;-70
2024/01/30 10:20:37;;;;;;;25.73;4.85;;;25.50;99.90;;;;;;4942804;29;20087;-72
2024/01/30 10:23:05;;;;;;;18.45;3.75;;;25.60;99.90;;;;;;4939548;29;20031;-69
2024/01/30 10:25:32;;;;;;;20.90;4.05;;;25.70;99.90;;;;;;4935764;28;20035;-69
2024/01/30 10:28:00;;;;;;;20.73;4.38;;;25.80;99.90;;;;;;4934247;29;20024;-68
2024/01/30 10:30:28;;;;;;;19.73;4.07;;;25.60;99.90;;;;;;4940821;29;20031;-69
2024/01/30 10:32:56;;;;;;;21.98;4.40;;;25.80;99.90;;;;;;4936932;29;20023;-70
2024/01/30 10:35:23;;;;;;;18.75;4.38;;;25.80;99.90;;;;;;4942785;28;20048;-69
2024/01/30 10:37:50;;;;;;;19.85;3.83;;;25.60;99.90;;;;;;4937107;28;20374;-69
2024/01/30 10:40:21;;;;;;;17.20;4.43;;;25.40;99.90;;;;;;4941622;29;20029;-70
2024/01/30 10:42:55;;;;;;;21.13;4.25;;;25.40;99.90;;;;;;4941443;29;20032;-72
2024/01/30 10:45:23;;;;;;;16.13;3.85;;;25.40;99.90;;;;;;4938445;29;20063;-70
2024/01/30 10:47:53;;;;;;;16.83;3.83;;;25.50;99.90;;;;;;4936295;29;20415;-70
2024/01/30 10:50:24;;;;;;;19.17;4.00;;;25.60;99.90;;;;;;4940753;29;20098;-70
2024/01/30 10:52:52;;;;;;;16.20;3.90;;;25.80;99.90;;;;;;4950269;28;20065;-71
2024/01/30 10:55:22;;;;;;;27.63;4.32;;;25.70;99.90;;;;;;4942606;28;20044;-69
2024/01/30 10:57:50;;;;;;;18.70;3.53;;;25.60;99.90;;;;;;4936403;29;20035;-69
2024/01/30 11:00:19;;;;;;;15.68;3.97;;;25.60;99.90;;;;;;4936109;29;20024;-73
2024/01/30 11:02:48;;;;;;;20.30;4.15;;;25.80;99.90;;;;;;4942728;29;20027;-69
2024/01/30 11:05:15;;;;;;;18.23;4.10;;;25.80;99.90;;;;;;4941530;28;20029;-69
2024/01/30 11:07:43;;;;;;;16.52;4.00;;;25.80;99.90;;;;;;4946418;28;20035;-69
2024/01/30 11:10:14;;;;;;;18.33;4.15;;;25.70;99.90;;;;;;4935152;28;20058;-69
2024/01/30 11:12:43;;;;;;;18.10;3.83;;;25.80;99.90;;;;;;4937678;29;20035;-69
2024/01/30 11:15:15;;;;;;;20.67;4.50;;;25.80;99.90;;;;;;4941457;28;20046;-68
2024/01/30 11:17:52;;;;;;;19.25;3.67;;;26.00;99.90;;;;;;4943750;29;20042;-69
2024/01/30 11:20:26;;;;;;;18.50;3.88;;;25.80;99.90;;;;;;4943208;28;20032;-69
2024/01/30 11:22:55;;;;;;;21.50;4.43;;;25.70;99.90;;;;;;4940634;28;20154;-68
2024/01/30 11:25:23;;;;;;;23.73;4.25;;;25.40;99.90;;;;;;4946883;29;21902;-68
2024/01/30 11:27:55;;;;;;;24.05;4.43;;;25.20;99.90;;;;;;4943404;29;20428;-68
2024/01/30 11:30:30;;;;;;;22.85;4.53;;;25.20;99.90;;;;;;4942312;29;20040;-68
2024/01/30 11:33:08;;;;;;;21.80;5.18;;;25.10;99.90;;;;;;4937003;29;20432;-68
2024/01/30 11:35:39;;;;;;;29.95;5.10;;;25.00;99.90;;;;;;4943255;28;20086;-69
2024/01/30 11:38:08;;;;;;;17.83;4.45;;;25.00;99.90;;;;;;4945779;29;20459;-68
2024/01/30 11:40:37;;;;;;;24.88;4.97;;;25.20;99.90;;;;;;4942797;28;20031;-68
2024/01/30 11:43:06;;;;;;;24.90;4.93;;;25.20;99.90;;;;;;4951318;28;20358;-69
2024/01/30 11:45:36;;;;;;;28.35;6.35;;;25.10;99.90;;;;;;4945939;29;20090;-69
2024/01/30 11:48:04;;;;;;;21.92;4.97;;;25.10;99.90;;;;;;4943551;28;20036;-70
2024/01/30 11:50:35;;;;;;;29.33;5.85;;;25.30;99.90;;;;;;4947154;28;20040;-68
2024/01/30 11:53:03;;;;;;;20.67;4.50;;;25.40;99.90;;;;;;4936595;29;20505;-69
2024/01/30 11:55:31;;;;;;;21.00;4.38;;;25.30;99.90;;;;;;4938717;29;20051;-69
2024/01/30 11:57:59;;;;;;;21.92;4.80;;;25.10;99.90;;;;;;4947683;29;20082;-69
2024/01/30 12:00:27;;;;;;;18.83;4.78;;;25.00;99.90;;;;;;4937535;29;20023;-69
2024/01/30 12:02:55;;;;;;;23.95;4.80;;;24.80;99.90;;;;;;4937366;29;20536;-68
2024/01/30 12:05:24;;;;;;;24.35;5.35;;;24.80;99.90;;;;;;4943524;29;20469;-69
2024/01/30 12:07:51;;;;;;;19.13;4.95;;;24.80;99.90;;;;;;4949637;28;20095;-68
2024/01/30 12:10:19;;;;;;;26.50;5.03;;;24.80;99.90;;;;;;4943769;29;20036;-69
2024/01/30 12:12:52;;;;;;;28.27;5.70;;;24.80;99.90;;;;;;4943194;28;20115;-69
2024/01/30 12:15:22;;;;;;;27.58;5.72;;;24.70;99.90;;;;;;4941776;29;20066;-68
2024/01/30 12:17:50;;;;;;;20.50;4.80;;;24.60;99.90;;;;;;4943669;29;20034;-68
2024/01/30 12:20:21;;;;;;;30.67;5.40;;;24.60;99.90;;;;;;4937402;28;20047;-71
2024/01/30 12:22:50;;;;;;;20.63;4.10;;;24.60;99.90;;;;;;4948085;29;20035;-69
2024/01/30 12:25:23;;;;;;;25.33;5.22;;;24.60;99.90;;;;;;4943580;29;20036;-72
2024/01/30 12:27:54;;;;;;;20.80;4.40;;;24.60;99.90;;;;;;4935526;28;20027;-71
2024/01/30 12:30:22;;;;;;;23.20;4.88;;;24.60;99.90;;;;;;4937734;29;20087;-71
2024/01/30 12:32:51;;;;;;;27.42;5.50;;;24.70;99.90;;;;;;4938689;29;20572;-73
2024/01/30 12:35:20;;;;;;;24.15;5.53;;;24.80;99.90;;;;;;4945178;29;20040;-72
2024/01/30 12:37:50;;;;;;;23.02;4.90;;;24.70;99.90;;;;;;4936854;29;20064;-72
2024/01/30 12:40:18;;;;;;;27.63;5.30;;;24.60;99.90;;;;;;4939259;28;20473;-72
2024/01/30 12:42:50;;;;;;;27.83;5.53;;;24.60;99.90;;;;;;4941777;29;20027;-72
2024/01/30 12:45:21;;;;;;;23.02;4.25;;;24.40;99.90;;;;;;4942884;28;20023;-73